EGJB

Guernsey Airport

Saint Peter Port, Guernsey

TAF EGJB 110157Z 1103/1112 07020KT 7000 RA BKN018 PROB30 TEMPO 1103/1112 3000 +RA BKN010 BECMG 1107/1109 02032G45KT

Issued Valid From Valid To
Dec-11 @ 01:57 UTC
(4 hours ago)
Dec-11 @ 03:00 UTC
(2 hours ago)
Dec-11 @ 12:00 UTC
(in 7 hours)
Dec-11 @ 03:00 -Dec-11 @ 07:00
Wind Visibility Clouds Conditions
70° at 20 knots 7,001 meters
  • Broken at 1,800' AGL
  • Rain
Probability 30% Temporary Dec-11 @ 03:00 -Dec-11 @ 12:00
Visibility Clouds Conditions
2,993 meters
  • Broken at 1,000' AGL
  • Heavy Rain
Becoming Dec-11 @ 07:00 -Dec-11 @ 12:00
Wind Visibility Clouds Conditions
20° at 32 knots
 Gusting to 45 knots
7,001 meters
  • Broken at 1,800' AGL
  • Rain
Issued Dec-11 @ 01:57 UTC
(4 hours ago)
Valid From Dec-11 @ 03:00 UTC
(2 hours ago)
Valid To Dec-11 @ 12:00 UTC
(in 7 hours)
Dec-11 @ 03:00 - Dec-11 @ 07:00
Wind Visibility
70° at 20 knots 7,001 meters
Clouds
  • Broken at 1,800' AGL
Conditions
  • Rain
Probability 30% Temporary Dec-11 @ 03:00 - Dec-11 @ 12:00
Clouds
  • Broken at 1,000' AGL
Conditions
  • Heavy Rain
Becoming Dec-11 @ 07:00 - Dec-11 @ 12:00
Wind Visibility
20° at 32 knots
 Gusting to 45 knots
7,001 meters
Clouds
  • Broken at 1,800' AGL
Conditions
  • Rain